sensor_id;sensor_type;location;lat;lon;timestamp;pressure;altitude;pressure_sealevel;temperature;humidity
50125;BME280;36023;48.670;6.184;2023-03-01T00:02:04;99777.06;;;13.76;32.34
50125;BME280;36023;48.670;6.184;2023-03-01T00:04:31;99778.81;;;13.75;32.48
50125;BME280;36023;48.670;6.184;2023-03-01T00:06:56;99778.81;;;13.75;32.51
50125;BME280;36023;48.670;6.184;2023-03-01T00:09:24;99774.50;;;13.74;32.29
50125;BME280;36023;48.670;6.184;2023-03-01T00:11:49;99775.41;;;13.73;32.31
50125;BME280;36023;48.670;6.184;2023-03-01T00:14:15;99779.75;;;13.73;32.29
50125;BME280;36023;48.670;6.184;2023-03-01T00:16:44;99774.59;;;13.71;32.30
50125;BME280;36023;48.670;6.184;2023-03-01T00:19:16;99777.19;;;13.71;32.42
50125;BME280;36023;48.670;6.184;2023-03-01T00:21:42;99777.19;;;13.71;32.33
50125;BME280;36023;48.670;6.184;2023-03-01T00:24:08;99772.88;;;13.69;32.30
50125;BME280;36023;48.670;6.184;2023-03-01T00:26:34;99776.38;;;13.68;32.44
50125;BME280;36023;48.670;6.184;2023-03-01T00:29:03;99768.56;;;13.68;32.37
50125;BME280;36023;48.670;6.184;2023-03-01T00:31:30;99769.47;;;13.66;32.23
50125;BME280;36023;48.670;6.184;2023-03-01T00:33:58;99765.16;;;13.65;32.15
50125;BME280;36023;48.670;6.184;2023-03-01T00:36:27;99767.75;;;13.65;32.16
50125;BME280;36023;48.670;6.184;2023-03-01T00:38:52;99759.09;;;13.65;32.02
50125;BME280;36023;48.670;6.184;2023-03-01T00:41:20;99765.19;;;13.64;32.10
50125;BME280;36023;48.670;6.184;2023-03-01T00:43:48;99760.00;;;13.64;32.11
50125;BME280;36023;48.670;6.184;2023-03-01T00:46:21;99758.28;;;13.63;32.00
50125;BME280;36023;48.670;6.184;2023-03-01T00:48:48;99756.56;;;13.62;31.99
50125;BME280;36023;48.670;6.184;2023-03-01T00:51:19;99761.78;;;13.62;32.01
50125;BME280;36023;48.670;6.184;2023-03-01T00:53:46;99766.97;;;13.62;32.08
50125;BME280;36023;48.670;6.184;2023-03-01T00:56:13;99763.50;;;13.61;31.87
50125;BME280;36023;48.670;6.184;2023-03-01T00:58:41;99764.38;;;13.62;32.10
50125;BME280;36023;48.670;6.184;2023-03-01T01:01:20;99765.25;;;13.61;31.99
50125;BME280;36023;48.670;6.184;2023-03-01T01:03:53;99753.97;;;13.60;31.91
50125;BME280;36023;48.670;6.184;2023-03-01T01:06:28;99753.97;;;13.60;32.00
50125;BME280;36023;48.670;6.184;2023-03-01T01:08:56;99761.78;;;13.60;31.88
50125;BME280;36023;48.670;6.184;2023-03-01T01:11:26;99759.19;;;13.60;31.93
50125;BME280;36023;48.670;6.184;2023-03-01T01:13:52;99757.47;;;13.59;31.99
50125;BME280;36023;48.670;6.184;2023-03-01T01:16:19;99754.00;;;13.59;31.99
50125;BME280;36023;48.670;6.184;2023-03-01T01:18:45;99748.84;;;13.57;31.84
50125;BME280;36023;48.670;6.184;2023-03-01T01:21:14;99742.75;;;13.58;32.02
50125;BME280;36023;48.670;6.184;2023-03-01T01:23:41;99740.16;;;13.58;31.98
50125;BME280;36023;48.670;6.184;2023-03-01T01:26:18;99742.78;;;13.57;31.98
50125;BME280;36023;48.670;6.184;2023-03-01T01:28:47;99731.53;;;13.56;31.85
50125;BME280;36023;48.670;6.184;2023-03-01T01:31:13;99728.91;;;13.56;31.88
50125;BME280;36023;48.670;6.184;2023-03-01T01:33:38;99729.81;;;13.55;31.79
50125;BME280;36023;48.670;6.184;2023-03-01T01:36:06;99729.81;;;13.55;31.80
50125;BME280;36023;48.670;6.184;2023-03-01T01:38:32;99718.56;;;13.55;31.80
50125;BME280;36023;48.670;6.184;2023-03-01T01:40:59;99714.22;;;13.54;31.88
50125;BME280;36023;48.670;6.184;2023-03-01T01:43:28;99721.16;;;13.53;31.68
50125;BME280;36023;48.670;6.184;2023-03-01T01:45:59;99708.16;;;13.53;31.74
50125;BME280;36023;48.670;6.184;2023-03-01T01:48:43;99706.41;;;13.54;31.74
50125;BME280;36023;48.670;6.184;2023-03-01T01:51:15;99704.69;;;13.53;31.82
50125;BME280;36023;48.670;6.184;2023-03-01T01:53:45;99703.00;;;13.52;31.75
50125;BME280;36023;48.670;6.184;2023-03-01T01:56:14;99708.19;;;13.52;31.73
50125;BME280;36023;48.670;6.184;2023-03-01T01:58:43;99709.94;;;13.51;31.60
50125;BME280;36023;48.670;6.184;2023-03-01T02:01:09;99709.09;;;13.51;31.67
50125;BME280;36023;48.670;6.184;2023-03-01T02:03:37;99707.38;;;13.50;31.52
50125;BME280;36023;48.670;6.184;2023-03-01T02:06:29;99706.53;;;13.49;31.46
50125;BME280;36023;48.670;6.184;2023-03-01T02:08:55;99709.13;;;13.49;31.61
50125;BME280;36023;48.670;6.184;2023-03-01T02:11:23;99704.81;;;13.48;31.74
50125;BME280;36023;48.670;6.184;2023-03-01T02:13:49;99703.06;;;13.49;31.63
50125;BME280;36023;48.670;6.184;2023-03-01T02:16:16;99700.50;;;13.47;31.58
50125;BME280;36023;48.670;6.184;2023-03-01T02:18:42;99703.97;;;13.48;31.62
50125;BME280;36023;48.670;6.184;2023-03-01T02:23:49;99697.91;;;13.46;31.77
50125;BME280;36023;48.670;6.184;2023-03-01T02:26:34;99697.91;;;13.46;31.50
50125;BME280;36023;48.670;6.184;2023-03-01T02:29:04;99700.56;;;13.44;31.52
50125;BME280;36023;48.670;6.184;2023-03-01T02:31:31;99686.69;;;13.44;31.54
50125;BME280;36023;48.670;6.184;2023-03-01T02:34:17;99688.44;;;13.43;31.51
50125;BME280;36023;48.670;6.184;2023-03-01T02:36:46;99690.19;;;13.43;31.36
50125;BME280;36023;48.670;6.184;2023-03-01T02:39:17;99683.22;;;13.43;31.52
50125;BME280;36023;48.670;6.184;2023-03-01T02:41:50;99677.22;;;13.41;31.53
50125;BME280;36023;48.670;6.184;2023-03-01T02:44:17;99678.06;;;13.42;31.58
50125;BME280;36023;48.670;6.184;2023-03-01T02:46:49;99671.16;;;13.41;31.85
50125;BME280;36023;48.670;6.184;2023-03-01T02:49:25;99669.44;;;13.40;31.33
50125;BME280;36023;48.670;6.184;2023-03-01T02:54:43;99671.19;;;13.39;31.47
50125;BME280;36023;48.670;6.184;2023-03-01T02:57:13;99665.13;;;13.38;31.43
50125;BME280;36023;48.670;6.184;2023-03-01T02:59:42;99661.69;;;13.36;31.37
50125;BME280;36023;48.670;6.184;2023-03-01T03:02:19;99662.53;;;13.37;31.34
50125;BME280;36023;48.670;6.184;2023-03-01T03:04:48;99661.69;;;13.36;31.30
50125;BME280;36023;48.670;6.184;2023-03-01T03:07:15;99662.59;;;13.35;31.44
50125;BME280;36023;48.670;6.184;2023-03-01T03:09:41;99666.03;;;13.36;31.23
50125;BME280;36023;48.670;6.184;2023-03-01T03:12:06;99663.47;;;13.34;31.46
50125;BME280;36023;48.670;6.184;2023-03-01T03:14:32;99658.28;;;13.34;31.47
50125;BME280;36023;48.670;6.184;2023-03-01T03:17:00;99652.22;;;13.34;31.46
50125;BME280;36023;48.670;6.184;2023-03-01T03:19:26;99659.13;;;13.35;31.37
50125;BME280;36023;48.670;6.184;2023-03-01T03:21:51;99649.63;;;13.34;31.38
50125;BME280;36023;48.670;6.184;2023-03-01T03:24:18;99639.22;;;13.34;31.34
50125;BME280;36023;48.670;6.184;2023-03-01T03:26:43;99645.31;;;13.33;31.04
50125;BME280;36023;48.670;6.184;2023-03-01T03:29:11;99640.97;;;13.33;31.40
50125;BME280;36023;48.670;6.184;2023-03-01T03:31:36;99630.56;;;13.33;31.23
50125;BME280;36023;48.670;6.184;2023-03-01T03:34:02;99623.66;;;13.32;31.38
50125;BME280;36023;48.670;6.184;2023-03-01T03:36:28;99633.19;;;13.32;31.32
50125;BME280;36023;48.670;6.184;2023-03-01T03:38:53;99621.94;;;13.31;31.26
50125;BME280;36023;48.670;6.184;2023-03-01T03:41:19;99623.69;;;13.31;31.46
50125;BME280;36023;48.670;6.184;2023-03-01T03:43:45;99625.41;;;13.30;31.28
50125;BME280;36023;48.670;6.184;2023-03-01T03:46:11;99620.19;;;13.32;31.27
50125;BME280;36023;48.670;6.184;2023-03-01T03:48:42;99619.34;;;13.31;31.28
50125;BME280;36023;48.670;6.184;2023-03-01T03:51:16;99615.00;;;13.30;31.32
50125;BME280;36023;48.670;6.184;2023-03-01T03:53:43;99621.09;;;13.29;31.32
50125;BME280;36023;48.670;6.184;2023-03-01T03:56:09;99624.53;;;13.30;31.14
50125;BME280;36023;48.670;6.184;2023-03-01T03:58:36;99620.19;;;13.30;31.32
50125;BME280;36023;48.670;6.184;2023-03-01T04:01:02;99624.53;;;13.30;31.34
50125;BME280;36023;48.670;6.184;2023-03-01T04:03:30;99614.19;;;13.28;31.23
50125;BME280;36023;48.670;6.184;2023-03-01T04:05:58;99611.59;;;13.28;31.38
50125;BME280;36023;48.670;6.184;2023-03-01T04:08:27;99615.94;;;13.28;31.29
50125;BME280;36023;48.670;6.184;2023-03-01T04:10:58;99603.81;;;13.27;31.09
50125;BME280;36023;48.670;6.184;2023-03-01T04:13:25;99606.41;;;13.27;31.06
50125;BME280;36023;48.670;6.184;2023-03-01T04:15:51;99609.88;;;13.27;31.14
50125;BME280;36023;48.670;6.184;2023-03-01T04:18:19;99608.16;;;13.26;31.14
50125;BME280;36023;48.670;6.184;2023-03-01T04:20:45;99602.97;;;13.26;31.01
50125;BME280;36023;48.670;6.184;2023-03-01T04:23:19;99601.25;;;13.25;31.34
50125;BME280;36023;48.670;6.184;2023-03-01T04:28:40;99595.19;;;13.25;31.00
50125;BME280;36023;48.670;6.184;2023-03-01T04:31:11;99594.34;;;13.24;31.22
50125;BME280;36023;48.670;6.184;2023-03-01T04:33:45;99594.34;;;13.24;31.18
50125;BME280;36023;48.670;6.184;2023-03-01T04:36:14;99593.50;;;13.24;31.20
50125;BME280;36023;48.670;6.184;2023-03-01T04:38:40;99591.75;;;13.23;31.22
50125;BME280;36023;48.670;6.184;2023-03-01T04:41:08;99588.31;;;13.22;30.93
50125;BME280;36023;48.670;6.184;2023-03-01T04:43:35;99587.44;;;13.22;30.99
50125;BME280;36023;48.670;6.184;2023-03-01T04:46:03;99589.19;;;13.21;31.17
50125;BME280;36023;48.670;6.184;2023-03-01T04:48:30;99584.00;;;13.21;31.10
50125;BME280;36023;48.670;6.184;2023-03-01T04:50:56;99577.94;;;13.19;31.05
50125;BME280;36023;48.670;6.184;2023-03-01T04:53:22;99582.28;;;13.19;31.05
50125;BME280;36023;48.670;6.184;2023-03-01T04:55:47;99572.78;;;13.18;30.97
50125;BME280;36023;48.670;6.184;2023-03-01T04:58:13;99573.63;;;13.18;31.10
50125;BME280;36023;48.670;6.184;2023-03-01T05:00:39;99571.91;;;13.19;31.25
50125;BME280;36023;48.670;6.184;2023-03-01T05:03:05;99571.09;;;13.17;31.06
50125;BME280;36023;48.670;6.184;2023-03-01T05:05:34;99570.22;;;13.16;31.10
50125;BME280;36023;48.670;6.184;2023-03-01T05:08:04;99571.09;;;13.17;31.26
50125;BME280;36023;48.670;6.184;2023-03-01T05:10:32;99571.09;;;13.17;31.23
50125;BME280;36023;48.670;6.184;2023-03-01T05:12:59;99565.03;;;13.16;31.33
50125;BME280;36023;48.670;6.184;2023-03-01T05:15:26;99570.13;;;13.21;31.58
50125;BME280;36023;48.670;6.184;2023-03-01T05:17:54;99563.06;;;13.27;31.40
50125;BME280;36023;48.670;6.184;2023-03-01T05:20:21;99559.34;;;13.37;31.59
50125;BME280;36023;48.670;6.184;2023-03-01T05:22:56;99560.84;;;13.48;31.71
50125;BME280;36023;48.670;6.184;2023-03-01T05:25:22;99563.22;;;13.57;31.59
50125;BME280;36023;48.670;6.184;2023-03-01T05:27:48;99561.28;;;13.65;31.60
50125;BME280;36023;48.670;6.184;2023-03-01T05:30:14;99555.00;;;13.74;31.58
50125;BME280;36023;48.670;6.184;2023-03-01T05:32:45;99553.03;;;13.82;31.70
50125;BME280;36023;48.670;6.184;2023-03-01T05:35:12;99548.59;;;13.87;31.53
50125;BME280;36023;48.670;6.184;2023-03-01T05:37:43;99545.78;;;13.94;31.42
50125;BME280;36023;48.670;6.184;2023-03-01T05:40:11;99548.19;;;14.01;31.51
50125;BME280;36023;48.670;6.184;2023-03-01T05:42:46;99548.03;;;14.07;31.35
50125;BME280;36023;48.670;6.184;2023-03-01T05:45:12;99545.28;;;14.13;31.35
50125;BME280;36023;48.670;6.184;2023-03-01T05:47:43;99552.13;;;14.17;31.37
50125;BME280;36023;48.670;6.184;2023-03-01T05:52:40;99544.06;;;14.26;31.09
50125;BME280;36023;48.670;6.184;2023-03-01T05:55:07;99548.28;;;14.30;31.11
50125;BME280;36023;48.670;6.184;2023-03-01T05:57:32;99549.06;;;14.34;31.34
50125;BME280;36023;48.670;6.184;2023-03-01T05:59:59;99545.47;;;14.38;31.04
50125;BME280;36023;48.670;6.184;2023-03-01T06:02:25;99545.34;;;14.42;31.16
50125;BME280;36023;48.670;6.184;2023-03-01T06:04:53;99548.72;;;14.46;31.00
50125;BME280;36023;48.670;6.184;2023-03-01T06:07:19;99546.91;;;14.49;30.92
50125;BME280;36023;48.670;6.184;2023-03-01T06:09:45;99545.06;;;14.53;30.96
50125;BME280;36023;48.670;6.184;2023-03-01T06:12:10;99543.25;;;14.57;30.99
50125;BME280;36023;48.670;6.184;2023-03-01T06:14:36;99546.66;;;14.59;30.95
50125;BME280;36023;48.670;6.184;2023-03-01T06:17:01;99547.41;;;14.62;30.94
50125;BME280;36023;48.670;6.184;2023-03-01T06:19:27;99547.38;;;14.64;30.83
50125;BME280;36023;48.670;6.184;2023-03-01T06:21:53;99546.38;;;14.68;30.97
50125;BME280;36023;48.670;6.184;2023-03-01T06:24:19;99533.28;;;14.71;31.14
50125;BME280;36023;48.670;6.184;2023-03-01T06:26:45;99536.69;;;14.73;31.35
50125;BME280;36023;48.670;6.184;2023-03-01T06:29:12;99535.78;;;14.74;31.33
50125;BME280;36023;48.670;6.184;2023-03-01T06:31:39;99548.81;;;14.74;31.63
50125;BME280;36023;48.670;6.184;2023-03-01T06:34:05;99534.88;;;14.75;31.68
50125;BME280;36023;48.670;6.184;2023-03-01T06:36:31;99536.69;;;14.73;31.65
50125;BME280;36023;48.670;6.184;2023-03-01T06:38:56;99535.81;;;14.72;31.99
50125;BME280;36023;48.670;6.184;2023-03-01T06:41:22;99548.00;;;14.72;32.04
50125;BME280;36023;48.670;6.184;2023-03-01T06:43:48;99542.81;;;14.70;32.29
50125;BME280;36023;48.670;6.184;2023-03-01T06:46:13;99544.63;;;14.68;32.45
50125;BME280;36023;48.670;6.184;2023-03-01T06:48:39;99546.47;;;14.65;32.64
50125;BME280;36023;48.670;6.184;2023-03-01T06:51:05;99543.09;;;14.61;32.75
50125;BME280;36023;48.670;6.184;2023-03-01T06:53:30;99548.41;;;14.58;32.97
50125;BME280;36023;48.670;6.184;2023-03-01T06:55:57;99560.63;;;14.56;33.00
50125;BME280;36023;48.670;6.184;2023-03-01T06:58:23;99555.53;;;14.52;33.18
50125;BME280;36023;48.670;6.184;2023-03-01T07:00:48;99560.00;;;14.46;33.35
50125;BME280;36023;48.670;6.184;2023-03-01T07:03:15;99554.13;;;14.40;33.53
50125;BME280;36023;48.670;6.184;2023-03-01T07:05:41;99557.72;;;14.34;33.43
50125;BME280;36023;48.670;6.184;2023-03-01T07:08:08;99564.84;;;14.28;33.72
50125;BME280;36023;48.670;6.184;2023-03-01T07:10:33;99563.22;;;14.23;33.70
50125;BME280;36023;48.670;6.184;2023-03-01T07:12:59;99557.34;;;14.17;33.79
50125;BME280;36023;48.670;6.184;2023-03-01T07:15:26;99554.00;;;14.12;33.87
50125;BME280;36023;48.670;6.184;2023-03-01T07:17:52;99552.34;;;14.08;34.02
50125;BME280;36023;48.670;6.184;2023-03-01T07:20:19;99554.25;;;14.03;34.09
50125;BME280;36023;48.670;6.184;2023-03-01T07:22:50;99552.59;;;13.99;34.17
50125;BME280;36023;48.670;6.184;2023-03-01T07:25:16;99555.34;;;13.94;34.25
50125;BME280;36023;48.670;6.184;2023-03-01T07:27:41;99552.75;;;13.92;34.31
50125;BME280;36023;48.670;6.184;2023-03-01T07:30:08;99550.28;;;13.88;34.45
50125;BME280;36023;48.670;6.184;2023-03-01T07:32:34;99545.97;;;13.87;34.63
50125;BME280;36023;48.670;6.184;2023-03-01T07:34:59;99547.78;;;13.83;34.59
50125;BME280;36023;48.670;6.184;2023-03-01T07:37:25;99550.50;;;13.80;34.47
50125;BME280;36023;48.670;6.184;2023-03-01T07:39:51;99542.75;;;13.77;34.64
50125;BME280;36023;48.670;6.184;2023-03-01T07:42:18;99546.28;;;13.75;34.54
50125;BME280;36023;48.670;6.184;2023-03-01T07:44:43;99544.63;;;13.72;34.83
50125;BME280;36023;48.670;6.184;2023-03-01T07:47:09;99546.41;;;13.70;34.77
50125;BME280;36023;48.670;6.184;2023-03-01T07:49:35;99537.78;;;13.68;34.86
50125;BME280;36023;48.670;6.184;2023-03-01T07:52:00;99540.41;;;13.66;34.72
50125;BME280;36023;48.670;6.184;2023-03-01T07:54:26;99537.88;;;13.65;34.76
50125;BME280;36023;48.670;6.184;2023-03-01T07:56:52;99524.94;;;13.62;34.77
50125;BME280;36023;48.670;6.184;2023-03-01T07:59:17;99523.19;;;13.61;34.79
50125;BME280;36023;48.670;6.184;2023-03-01T08:01:44;99520.66;;;13.59;34.84
50125;BME280;36023;48.670;6.184;2023-03-01T08:04:09;99525.03;;;13.57;34.71
50125;BME280;36023;48.670;6.184;2023-03-01T08:06:35;99522.47;;;13.56;34.92
50125;BME280;36023;48.670;6.184;2023-03-01T08:09:03;99522.53;;;13.54;34.85
50125;BME280;36023;48.670;6.184;2023-03-01T08:11:28;99517.34;;;13.53;34.95
50125;BME280;36023;48.670;6.184;2023-03-01T08:13:54;99519.09;;;13.52;34.91
50125;BME280;36023;48.670;6.184;2023-03-01T08:16:20;99519.97;;;13.51;34.90
50125;BME280;36023;48.670;6.184;2023-03-01T08:18:45;99516.56;;;13.49;34.85
50125;BME280;36023;48.670;6.184;2023-03-01T08:21:14;99511.41;;;13.48;34.93
50125;BME280;36023;48.670;6.184;2023-03-01T08:23:40;99514.00;;;13.48;34.84
50125;BME280;36023;48.670;6.184;2023-03-01T08:28:32;99517.50;;;13.47;34.70
50125;BME280;36023;48.670;6.184;2023-03-01T08:30:58;99512.31;;;13.45;35.30
50125;BME280;36023;48.670;6.184;2023-03-01T08:33:24;99513.22;;;13.44;34.70
50125;BME280;36023;48.670;6.184;2023-03-01T08:35:49;99508.97;;;13.42;34.81
50125;BME280;36023;48.670;6.184;2023-03-01T08:38:15;99516.75;;;13.42;34.73
50125;BME280;36023;48.670;6.184;2023-03-01T08:40:40;99505.53;;;13.40;34.66
50125;BME280;36023;48.670;6.184;2023-03-01T08:43:08;99503.84;;;13.38;34.82
50125;BME280;36023;48.670;6.184;2023-03-01T08:45:33;99509.91;;;13.37;34.76
50125;BME280;36023;48.670;6.184;2023-03-01T08:47:59;99501.25;;;13.37;34.70
50125;BME280;36023;48.670;6.184;2023-03-01T08:50:25;99500.34;;;13.38;34.62
50125;BME280;36023;48.670;6.184;2023-03-01T08:52:51;99500.41;;;13.36;34.59
50125;BME280;36023;48.670;6.184;2023-03-01T08:55:16;99493.50;;;13.35;34.56
50125;BME280;36023;48.670;6.184;2023-03-01T08:57:43;99484.84;;;13.35;34.59
50125;BME280;36023;48.670;6.184;2023-03-01T09:00:10;99485.69;;;13.35;34.61
50125;BME280;36023;48.670;6.184;2023-03-01T09:02:37;99488.34;;;13.34;34.68
50125;BME280;36023;48.670;6.184;2023-03-01T09:05:23;99477.88;;;13.35;34.48
50125;BME280;36023;48.670;6.184;2023-03-01T09:07:49;99479.63;;;13.35;34.13
50125;BME280;36023;48.670;6.184;2023-03-01T09:10:15;99471.81;;;13.35;34.32
50125;BME280;36023;48.670;6.184;2023-03-01T09:12:40;99462.31;;;13.34;34.38
50125;BME280;36023;48.670;6.184;2023-03-01T09:15:07;99468.47;;;13.31;34.39
50125;BME280;36023;48.670;6.184;2023-03-01T09:17:32;99460.66;;;13.31;34.53
50125;BME280;36023;48.670;6.184;2023-03-01T09:19:58;99472.78;;;13.32;34.40
50125;BME280;36023;48.670;6.184;2023-03-01T09:22:25;99460.56;;;13.34;34.52
50125;BME280;36023;48.670;6.184;2023-03-01T09:24:51;99457.91;;;13.36;34.51
50125;BME280;36023;48.670;6.184;2023-03-01T09:27:16;99458.78;;;13.36;34.33
50125;BME280;36023;48.670;6.184;2023-03-01T09:29:44;99453.56;;;13.36;34.24
50125;BME280;36023;48.670;6.184;2023-03-01T09:32:10;99443.13;;;13.38;34.41
50125;BME280;36023;48.670;6.184;2023-03-01T09:34:36;99451.81;;;13.38;34.52
50125;BME280;36023;48.670;6.184;2023-03-01T09:37:21;99446.56;;;13.40;34.18
50125;BME280;36023;48.670;6.184;2023-03-01T09:39:48;99443.75;;;13.48;34.41
50125;BME280;36023;48.670;6.184;2023-03-01T09:42:15;99447.13;;;13.51;34.01
50125;BME280;36023;48.670;6.184;2023-03-01T09:47:29;99433.38;;;13.46;34.07
50125;BME280;36023;48.670;6.184;2023-03-01T09:50:11;99438.63;;;13.45;33.90
50125;BME280;36023;48.670;6.184;2023-03-01T09:55:19;99433.56;;;13.40;33.80
50125;BME280;36023;48.670;6.184;2023-03-01T09:57:49;99434.44;;;13.39;33.88
50125;BME280;36023;48.670;6.184;2023-03-01T10:00:35;99431.00;;;13.38;33.68
50125;BME280;36023;48.670;6.184;2023-03-01T10:03:10;99442.28;;;13.37;33.80
50125;BME280;36023;48.670;6.184;2023-03-01T10:05:41;99435.38;;;13.36;33.84
50125;BME280;36023;48.670;6.184;2023-03-01T10:10:40;99431.06;;;13.35;33.66
50125;BME280;36023;48.670;6.184;2023-03-01T10:16:10;99431.94;;;13.34;33.75
50125;BME280;36023;48.670;6.184;2023-03-01T10:18:37;99431.09;;;13.34;33.71
50125;BME280;36023;48.670;6.184;2023-03-01T10:21:16;99435.44;;;13.33;33.64
50125;BME280;36023;48.670;6.184;2023-03-01T10:23:43;99433.69;;;13.34;33.68
50125;BME280;36023;48.670;6.184;2023-03-01T10:31:14;99434.56;;;13.34;33.69
50125;BME280;36023;48.670;6.184;2023-03-01T10:33:43;99425.03;;;13.33;33.64
50125;BME280;36023;48.670;6.184;2023-03-01T10:36:08;99424.16;;;13.34;33.67
50125;BME280;36023;48.670;6.184;2023-03-01T10:38:49;99428.47;;;13.35;33.81
50125;BME280;36023;48.670;6.184;2023-03-01T10:41:17;99418.06;;;13.35;33.76
50125;BME280;36023;48.670;6.184;2023-03-01T10:43:49;99411.94;;;13.36;33.72
50125;BME280;36023;48.670;6.184;2023-03-01T10:51:39;99421.41;;;13.41;33.68
50125;BME280;36023;48.670;6.184;2023-03-01T10:54:35;99418.78;;;13.41;33.59
50125;BME280;36023;48.670;6.184;2023-03-01T10:57:04;99410.09;;;13.42;33.57
50125;BME280;36023;48.670;6.184;2023-03-01T10:59:37;99402.28;;;13.42;33.53
50125;BME280;36023;48.670;6.184;2023-03-01T11:07:49;99395.28;;;13.44;33.64
50125;BME280;36023;48.670;6.184;2023-03-01T11:10:23;99386.53;;;13.46;33.61
50125;BME280;36023;48.670;6.184;2023-03-01T11:12:50;99389.97;;;13.48;33.62
50125;BME280;36023;48.670;6.184;2023-03-01T11:15:25;99381.28;;;13.49;33.49
50125;BME280;36023;48.670;6.184;2023-03-01T11:17:51;99379.53;;;13.50;33.46
50125;BME280;36023;48.670;6.184;2023-03-01T11:20:29;99370.81;;;13.51;33.41
50125;BME280;36023;48.670;6.184;2023-03-01T11:23:11;99376.03;;;13.51;33.25
50125;BME280;36023;48.670;6.184;2023-03-01T11:25:59;99378.66;;;13.49;33.49
50125;BME280;36023;48.670;6.184;2023-03-01T11:28:28;99375.22;;;13.49;33.38
50125;BME280;36023;48.670;6.184;2023-03-01T11:31:05;99364.81;;;13.49;33.47
50125;BME280;36023;48.670;6.184;2023-03-01T11:33:45;99370.06;;;13.47;33.40
50125;BME280;36023;48.670;6.184;2023-03-01T11:38:56;99354.44;;;13.47;33.34
50125;BME280;36023;48.670;6.184;2023-03-01T11:41:30;99351.84;;;13.47;33.34
50125;BME280;36023;48.670;6.184;2023-03-01T11:44:01;99351.84;;;13.47;33.26
50125;BME280;36023;48.670;6.184;2023-03-01T12:02:21;99330.25;;;13.44;33.42
50125;BME280;36023;48.670;6.184;2023-03-01T12:07:53;99319.84;;;13.44;33.11
50125;BME280;36023;48.670;6.184;2023-03-01T12:10:29;99306.84;;;13.44;33.29
50125;BME280;36023;48.670;6.184;2023-03-01T12:16:03;99299.97;;;13.41;33.38
50125;BME280;36023;48.670;6.184;2023-03-01T12:18:46;99295.63;;;13.42;33.48
50125;BME280;36023;48.670;6.184;2023-03-01T12:21:49;99282.63;;;13.42;33.43
50125;BME280;36023;48.670;6.184;2023-03-01T12:29:42;99263.56;;;13.41;33.44
50125;BME280;36023;48.670;6.184;2023-03-01T12:37:32;99260.06;;;13.42;33.51
50125;BME280;36023;48.670;6.184;2023-03-01T12:41:04;99262.66;;;13.42;33.38
50125;BME280;36023;48.670;6.184;2023-03-01T12:51:24;99242.75;;;13.41;33.51
50125;BME280;36023;48.670;6.184;2023-03-01T12:53:53;99241.00;;;13.42;33.35
50125;BME280;36023;48.670;6.184;2023-03-01T12:56:25;99240.88;;;13.45;33.50
50125;BME280;36023;48.670;6.184;2023-03-01T12:59:15;99234.78;;;13.46;33.63
50125;BME280;36023;48.670;6.184;2023-03-01T13:02:04;99226.13;;;13.47;33.56
50125;BME280;36023;48.670;6.184;2023-03-01T13:07:32;99225.06;;;13.52;33.45
50125;BME280;36023;48.670;6.184;2023-03-01T13:17:50;99215.31;;;13.59;33.55
50125;BME280;36023;48.670;6.184;2023-03-01T13:20:18;99221.38;;;13.59;33.52
50125;BME280;36023;48.670;6.184;2023-03-01T13:22:45;99214.47;;;13.58;33.67
50125;BME280;36023;48.670;6.184;2023-03-01T13:25:19;99209.28;;;13.58;33.69
50125;BME280;36023;48.670;6.184;2023-03-01T13:27:46;99205.75;;;13.59;33.65
50125;BME280;36023;48.670;6.184;2023-03-01T13:30:45;99204.00;;;13.60;33.78
50125;BME280;36023;48.670;6.184;2023-03-01T13:35:58;99191.00;;;13.60;33.63
50125;BME280;36023;48.670;6.184;2023-03-01T13:38:55;99194.44;;;13.60;33.77
50125;BME280;36023;48.670;6.184;2023-03-01T13:46:46;99199.63;;;13.62;33.63
50125;BME280;36023;48.670;6.184;2023-03-01T13:49:15;99193.56;;;13.61;33.69
50125;BME280;36023;48.670;6.184;2023-03-01T13:51:41;99194.44;;;13.62;33.62
50125;BME280;36023;48.670;6.184;2023-03-01T13:54:14;99190.06;;;13.62;33.76
50125;BME280;36023;48.670;6.184;2023-03-01T13:56:40;99190.94;;;13.63;33.82
50125;BME280;36023;48.670;6.184;2023-03-01T13:59:19;99185.75;;;13.61;33.78
50125;BME280;36023;48.670;6.184;2023-03-01T14:01:53;99184.03;;;13.62;33.70
50125;BME280;36023;48.670;6.184;2023-03-01T14:04:32;99179.69;;;13.61;33.58
50125;BME280;36023;48.670;6.184;2023-03-01T14:07:21;99184.91;;;13.61;33.77
50125;BME280;36023;48.670;6.184;2023-03-01T14:09:58;99185.75;;;13.61;33.82
50125;BME280;36023;48.670;6.184;2023-03-01T14:15:29;99174.47;;;13.61;33.75
50125;BME280;36023;48.670;6.184;2023-03-01T14:18:08;99175.38;;;13.60;33.70
50125;BME280;36023;48.670;6.184;2023-03-01T14:20:41;99165.81;;;13.60;34.00
50125;BME280;36023;48.670;6.184;2023-03-01T14:23:18;99168.44;;;13.60;33.93
50125;BME280;36023;48.670;6.184;2023-03-01T14:25:53;99165.81;;;13.60;33.77
50125;BME280;36023;48.670;6.184;2023-03-01T14:28:21;99153.66;;;13.61;33.80
50125;BME280;36023;48.670;6.184;2023-03-01T14:30:56;99164.97;;;13.60;33.84
50125;BME280;36023;48.670;6.184;2023-03-01T14:33:27;99163.22;;;13.60;33.84
50125;BME280;36023;48.670;6.184;2023-03-01T14:36:05;99169.28;;;13.61;33.76
50125;BME280;36023;48.670;6.184;2023-03-01T14:41:17;99168.41;;;13.62;33.86
50125;BME280;36023;48.670;6.184;2023-03-01T14:44:12;99163.19;;;13.62;33.69
50125;BME280;36023;48.670;6.184;2023-03-01T14:46:38;99163.19;;;13.62;33.72
50125;BME280;36023;48.670;6.184;2023-03-01T14:49:15;99162.31;;;13.61;33.93
50125;BME280;36023;48.670;6.184;2023-03-01T14:51:53;99162.31;;;13.61;33.76
50125;BME280;36023;48.670;6.184;2023-03-01T14:54:46;99164.94;;;13.61;33.78
50125;BME280;36023;48.670;6.184;2023-03-01T14:57:25;99156.28;;;13.61;33.79
50125;BME280;36023;48.670;6.184;2023-03-01T14:59:57;99156.28;;;13.61;33.82
50125;BME280;36023;48.670;6.184;2023-03-01T15:02:26;99163.19;;;13.62;33.88